ESCF/LPI METAR and TAF weather

Enter ICAO airport designator
Station Type Date Time Source
ESCF METAR 2021/04/14 19:20 UTC NOAA

ESCF 141920Z AUTO 28004KT 9999 OVC068/// 05/M03 Q1028


Station Type Date Time Source
ESCF Decoded METAR 2021/04/14 19:20 UTC NOAA

Linkoping / Malmen, Sweden (ESCF) 58-24N 015-31E 117M
Apr 14, 2021 - 03:20 PM EDT / 2021.04.14 1920 UTC
Wind: from the W (280 degrees) at 5 MPH (4 KT):0
Visibility: greater than 7 mile(s):0
Sky conditions: overcast
Temperature: 41 F (5 C)
Dew Point: 26 F (-3 C)
Relative Humidity: 56%
Pressure (altimeter): 30.36 in. Hg (1028 hPa)
ob: ESCF 141920Z AUTO 28004KT 9999 OVC068/// 05/M03 Q1028
cycle: 19

Station Type Date Time Source
ESCF TAF UTC NOAA

Error!

Example: see airport list